sensor_id;sensor_type;location;lat;lon;timestamp;temperature;humidity
71175;DHT22;58876;51.994;4.472;2023-03-29T00:00:58;7.94;70.43
71175;DHT22;58876;51.994;4.472;2023-03-29T00:03:27;7.86;70.87
71175;DHT22;58876;51.994;4.472;2023-03-29T00:05:58;7.82;71.17
71175;DHT22;58876;51.994;4.472;2023-03-29T00:08:31;7.82;71.12
71175;DHT22;58876;51.994;4.472;2023-03-29T00:10:58;7.87;71.14
71175;DHT22;58876;51.994;4.472;2023-03-29T00:13:27;7.96;70.98
71175;DHT22;58876;51.994;4.472;2023-03-29T00:15:54;7.94;71.32
71175;DHT22;58876;51.994;4.472;2023-03-29T00:18:21;7.96;71.54
71175;DHT22;58876;51.994;4.472;2023-03-29T00:20:56;8.01;72.10
71175;DHT22;58876;51.994;4.472;2023-03-29T00:23:21;8.01;72.31
71175;DHT22;58876;51.994;4.472;2023-03-29T00:25:47;7.87;73.03
71175;DHT22;58876;51.994;4.472;2023-03-29T00:28:13;8.00;73.08
71175;DHT22;58876;51.994;4.472;2023-03-29T00:30:39;7.90;72.85
71175;DHT22;58876;51.994;4.472;2023-03-29T00:33:06;7.84;72.62
71175;DHT22;58876;51.994;4.472;2023-03-29T00:35:32;7.87;72.72
71175;DHT22;58876;51.994;4.472;2023-03-29T00:37:58;8.05;72.27
71175;DHT22;58876;51.994;4.472;2023-03-29T00:40:23;7.96;72.11
71175;DHT22;58876;51.994;4.472;2023-03-29T00:42:49;7.98;72.44
71175;DHT22;58876;51.994;4.472;2023-03-29T00:45:21;8.11;72.05
71175;DHT22;58876;51.994;4.472;2023-03-29T00:47:50;8.07;71.81
71175;DHT22;58876;51.994;4.472;2023-03-29T00:52:55;8.25;70.81
71175;DHT22;58876;51.994;4.472;2023-03-29T00:55:24;8.37;70.82
71175;DHT22;58876;51.994;4.472;2023-03-29T00:57:52;8.45;70.80
71175;DHT22;58876;51.994;4.472;2023-03-29T01:00:25;8.49;70.50
71175;DHT22;58876;51.994;4.472;2023-03-29T01:02:56;8.46;70.54
71175;DHT22;58876;51.994;4.472;2023-03-29T01:05:37;8.52;70.00
71175;DHT22;58876;51.994;4.472;2023-03-29T01:08:08;8.48;69.70
71175;DHT22;58876;51.994;4.472;2023-03-29T01:10:39;8.58;69.63
71175;DHT22;58876;51.994;4.472;2023-03-29T01:13:10;8.58;69.39
71175;DHT22;58876;51.994;4.472;2023-03-29T01:15:39;8.46;69.80
71175;DHT22;58876;51.994;4.472;2023-03-29T01:18:06;8.56;69.68
71175;DHT22;58876;51.994;4.472;2023-03-29T01:20:44;8.54;69.79
71175;DHT22;58876;51.994;4.472;2023-03-29T01:29:02;8.55;70.25
71175;DHT22;58876;51.994;4.472;2023-03-29T01:31:38;8.56;70.38
71175;DHT22;58876;51.994;4.472;2023-03-29T01:34:35;8.59;70.49
71175;DHT22;58876;51.994;4.472;2023-03-29T01:37:09;8.62;70.38
71175;DHT22;58876;51.994;4.472;2023-03-29T01:39:36;8.73;70.31
71175;DHT22;58876;51.994;4.472;2023-03-29T01:42:20;8.80;70.17
71175;DHT22;58876;51.994;4.472;2023-03-29T01:54:17;8.83;71.16
71175;DHT22;58876;51.994;4.472;2023-03-29T01:56:47;8.83;70.89
71175;DHT22;58876;51.994;4.472;2023-03-29T01:59:20;8.76;71.01
71175;DHT22;58876;51.994;4.472;2023-03-29T02:01:54;8.86;71.22
71175;DHT22;58876;51.994;4.472;2023-03-29T02:04:27;8.90;71.14
71175;DHT22;58876;51.994;4.472;2023-03-29T02:06:56;8.89;70.88
71175;DHT22;58876;51.994;4.472;2023-03-29T02:09:27;8.77;71.47
71175;DHT22;58876;51.994;4.472;2023-03-29T02:11:57;8.85;71.81
71175;DHT22;58876;51.994;4.472;2023-03-29T02:14:25;8.85;71.72
71175;DHT22;58876;51.994;4.472;2023-03-29T02:16:50;8.83;71.53
71175;DHT22;58876;51.994;4.472;2023-03-29T02:19:17;8.80;71.96
71175;DHT22;58876;51.994;4.472;2023-03-29T02:21:57;8.90;71.63
71175;DHT22;58876;51.994;4.472;2023-03-29T02:24:29;8.85;71.79
71175;DHT22;58876;51.994;4.472;2023-03-29T02:26:59;8.89;71.85
71175;DHT22;58876;51.994;4.472;2023-03-29T02:29:26;9.07;71.33
71175;DHT22;58876;51.994;4.472;2023-03-29T02:32:02;9.07;71.01
71175;DHT22;58876;51.994;4.472;2023-03-29T02:34:35;9.03;71.46
71175;DHT22;58876;51.994;4.472;2023-03-29T02:37:13;8.76;72.16
71175;DHT22;58876;51.994;4.472;2023-03-29T02:39:41;9.02;71.56
71175;DHT22;58876;51.994;4.472;2023-03-29T02:42:08;9.17;71.18
71175;DHT22;58876;51.994;4.472;2023-03-29T02:44:39;9.20;71.11
71175;DHT22;58876;51.994;4.472;2023-03-29T02:47:16;9.09;71.23
71175;DHT22;58876;51.994;4.472;2023-03-29T02:49:43;9.19;71.39
71175;DHT22;58876;51.994;4.472;2023-03-29T02:52:14;9.14;71.16
71175;DHT22;58876;51.994;4.472;2023-03-29T02:54:44;9.04;71.39
71175;DHT22;58876;51.994;4.472;2023-03-29T02:57:10;9.09;71.50
71175;DHT22;58876;51.994;4.472;2023-03-29T02:59:36;9.00;71.66
71175;DHT22;58876;51.994;4.472;2023-03-29T03:02:03;8.87;72.33
71175;DHT22;58876;51.994;4.472;2023-03-29T03:04:30;8.86;72.55
71175;DHT22;58876;51.994;4.472;2023-03-29T03:06:56;8.93;72.01
71175;DHT22;58876;51.994;4.472;2023-03-29T03:09:22;8.96;72.34
71175;DHT22;58876;51.994;4.472;2023-03-29T03:11:47;8.99;72.47
71175;DHT22;58876;51.994;4.472;2023-03-29T03:14:13;9.00;72.27
71175;DHT22;58876;51.994;4.472;2023-03-29T03:16:38;9.07;72.25
71175;DHT22;58876;51.994;4.472;2023-03-29T03:19:05;9.13;72.04
71175;DHT22;58876;51.994;4.472;2023-03-29T03:21:30;9.10;72.32
71175;DHT22;58876;51.994;4.472;2023-03-29T03:23:56;9.17;72.06
71175;DHT22;58876;51.994;4.472;2023-03-29T03:26:22;9.10;72.33
71175;DHT22;58876;51.994;4.472;2023-03-29T03:28:49;9.26;71.92
71175;DHT22;58876;51.994;4.472;2023-03-29T03:31:15;9.24;72.00
71175;DHT22;58876;51.994;4.472;2023-03-29T03:33:42;9.28;72.09
71175;DHT22;58876;51.994;4.472;2023-03-29T03:36:09;9.35;71.68
71175;DHT22;58876;51.994;4.472;2023-03-29T03:38:35;9.43;71.54
71175;DHT22;58876;51.994;4.472;2023-03-29T03:41:01;9.24;72.24
71175;DHT22;58876;51.994;4.472;2023-03-29T03:43:28;9.23;72.10
71175;DHT22;58876;51.994;4.472;2023-03-29T03:45:54;9.26;72.19
71175;DHT22;58876;51.994;4.472;2023-03-29T03:48:21;9.16;72.56
71175;DHT22;58876;51.994;4.472;2023-03-29T03:50:51;9.14;72.76
71175;DHT22;58876;51.994;4.472;2023-03-29T03:53:18;9.16;72.69
71175;DHT22;58876;51.994;4.472;2023-03-29T03:55:47;9.22;72.70
71175;DHT22;58876;51.994;4.472;2023-03-29T03:58:14;9.28;72.62
71175;DHT22;58876;51.994;4.472;2023-03-29T04:00:39;9.28;72.45
71175;DHT22;58876;51.994;4.472;2023-03-29T04:03:05;9.14;73.01
71175;DHT22;58876;51.994;4.472;2023-03-29T04:05:31;9.10;73.48
71175;DHT22;58876;51.994;4.472;2023-03-29T04:07:57;9.09;73.80
71175;DHT22;58876;51.994;4.472;2023-03-29T04:10:22;9.19;73.44
71175;DHT22;58876;51.994;4.472;2023-03-29T04:12:48;9.04;73.88
71175;DHT22;58876;51.994;4.472;2023-03-29T04:15:13;9.26;73.64
71175;DHT22;58876;51.994;4.472;2023-03-29T04:17:38;9.24;73.39
71175;DHT22;58876;51.994;4.472;2023-03-29T04:20:05;9.35;72.99
71175;DHT22;58876;51.994;4.472;2023-03-29T04:22:37;9.35;73.10
71175;DHT22;58876;51.994;4.472;2023-03-29T04:25:04;9.38;73.21
71175;DHT22;58876;51.994;4.472;2023-03-29T04:27:30;9.28;73.45
71175;DHT22;58876;51.994;4.472;2023-03-29T04:29:56;9.28;73.78
71175;DHT22;58876;51.994;4.472;2023-03-29T04:32:21;9.31;73.54
71175;DHT22;58876;51.994;4.472;2023-03-29T04:34:47;9.28;73.88
71175;DHT22;58876;51.994;4.472;2023-03-29T04:37:12;9.27;74.09
71175;DHT22;58876;51.994;4.472;2023-03-29T04:39:38;9.38;73.72
71175;DHT22;58876;51.994;4.472;2023-03-29T04:42:04;9.50;73.56
71175;DHT22;58876;51.994;4.472;2023-03-29T04:44:30;9.48;73.12
71175;DHT22;58876;51.994;4.472;2023-03-29T04:47:01;9.59;73.08
71175;DHT22;58876;51.994;4.472;2023-03-29T04:49:26;9.57;73.15
71175;DHT22;58876;51.994;4.472;2023-03-29T04:51:52;9.57;73.18
71175;DHT22;58876;51.994;4.472;2023-03-29T04:54:20;9.64;73.24
71175;DHT22;58876;51.994;4.472;2023-03-29T04:56:46;9.54;73.47
71175;DHT22;58876;51.994;4.472;2023-03-29T04:59:11;9.55;73.68
71175;DHT22;58876;51.994;4.472;2023-03-29T05:01:36;9.47;73.99
71175;DHT22;58876;51.994;4.472;2023-03-29T05:04:02;9.52;74.00
71175;DHT22;58876;51.994;4.472;2023-03-29T05:06:29;9.59;73.94
71175;DHT22;58876;51.994;4.472;2023-03-29T05:08:55;9.59;73.96
71175;DHT22;58876;51.994;4.472;2023-03-29T05:11:20;9.48;74.47
71175;DHT22;58876;51.994;4.472;2023-03-29T05:13:49;9.47;74.74
71175;DHT22;58876;51.994;4.472;2023-03-29T05:16:14;9.57;74.21
71175;DHT22;58876;51.994;4.472;2023-03-29T05:18:40;9.58;74.35
71175;DHT22;58876;51.994;4.472;2023-03-29T05:21:05;9.70;74.26
71175;DHT22;58876;51.994;4.472;2023-03-29T05:23:32;9.58;74.11
71175;DHT22;58876;51.994;4.472;2023-03-29T05:25:58;9.58;74.65
71175;DHT22;58876;51.994;4.472;2023-03-29T05:28:24;9.58;74.53
71175;DHT22;58876;51.994;4.472;2023-03-29T05:31:02;9.64;74.47
71175;DHT22;58876;51.994;4.472;2023-03-29T05:33:29;9.59;74.62
71175;DHT22;58876;51.994;4.472;2023-03-29T05:36:03;9.50;75.12
71175;DHT22;58876;51.994;4.472;2023-03-29T05:38:29;9.45;75.68
71175;DHT22;58876;51.994;4.472;2023-03-29T05:40:57;9.51;75.78
71175;DHT22;58876;51.994;4.472;2023-03-29T05:43:23;9.55;75.64
71175;DHT22;58876;51.994;4.472;2023-03-29T05:45:48;9.61;75.37
71175;DHT22;58876;51.994;4.472;2023-03-29T05:48:13;9.62;75.67
71175;DHT22;58876;51.994;4.472;2023-03-29T05:50:39;9.70;75.79
71175;DHT22;58876;51.994;4.472;2023-03-29T05:53:04;9.70;75.60
71175;DHT22;58876;51.994;4.472;2023-03-29T05:55:30;9.68;75.79
71175;DHT22;58876;51.994;4.472;2023-03-29T05:57:55;9.67;76.28
71175;DHT22;58876;51.994;4.472;2023-03-29T06:00:21;9.65;76.43
71175;DHT22;58876;51.994;4.472;2023-03-29T06:02:50;9.75;76.24
71175;DHT22;58876;51.994;4.472;2023-03-29T06:05:20;9.74;76.56
71175;DHT22;58876;51.994;4.472;2023-03-29T06:07:45;9.77;76.57
71175;DHT22;58876;51.994;4.472;2023-03-29T06:10:14;9.77;76.46
71175;DHT22;58876;51.994;4.472;2023-03-29T06:12:40;9.79;76.43
71175;DHT22;58876;51.994;4.472;2023-03-29T06:15:06;9.81;76.81
71175;DHT22;58876;51.994;4.472;2023-03-29T06:17:33;10.03;76.40
71175;DHT22;58876;51.994;4.472;2023-03-29T06:20:00;10.14;75.97
71175;DHT22;58876;51.994;4.472;2023-03-29T06:22:27;10.01;76.52
71175;DHT22;58876;51.994;4.472;2023-03-29T06:24:53;10.05;76.63
71175;DHT22;58876;51.994;4.472;2023-03-29T06:27:19;10.09;76.51
71175;DHT22;58876;51.994;4.472;2023-03-29T06:29:44;10.20;76.31
71175;DHT22;58876;51.994;4.472;2023-03-29T06:32:10;10.24;76.22
71175;DHT22;58876;51.994;4.472;2023-03-29T06:34:36;10.20;76.61
71175;DHT22;58876;51.994;4.472;2023-03-29T06:37:02;10.30;76.31
71175;DHT22;58876;51.994;4.472;2023-03-29T06:39:28;10.46;75.63
71175;DHT22;58876;51.994;4.472;2023-03-29T06:41:54;10.54;75.27
71175;DHT22;58876;51.994;4.472;2023-03-29T06:44:20;10.49;75.20
71175;DHT22;58876;51.994;4.472;2023-03-29T06:46:45;10.46;75.74
71175;DHT22;58876;51.994;4.472;2023-03-29T06:49:11;10.44;75.63
71175;DHT22;58876;51.994;4.472;2023-03-29T06:51:36;10.40;76.16
71175;DHT22;58876;51.994;4.472;2023-03-29T06:54:02;10.44;76.63
71175;DHT22;58876;51.994;4.472;2023-03-29T06:56:28;10.44;76.00
71175;DHT22;58876;51.994;4.472;2023-03-29T06:58:54;10.54;75.99
71175;DHT22;58876;51.994;4.472;2023-03-29T07:01:20;10.72;75.54
71175;DHT22;58876;51.994;4.472;2023-03-29T07:03:46;10.70;75.76
71175;DHT22;58876;51.994;4.472;2023-03-29T07:06:11;10.82;74.92
71175;DHT22;58876;51.994;4.472;2023-03-29T07:08:39;10.80;75.27
71175;DHT22;58876;51.994;4.472;2023-03-29T07:11:10;10.82;75.35
71175;DHT22;58876;51.994;4.472;2023-03-29T07:13:37;10.77;75.97
71175;DHT22;58876;51.994;4.472;2023-03-29T07:16:04;10.71;75.82
71175;DHT22;58876;51.994;4.472;2023-03-29T07:18:30;10.81;76.05
71175;DHT22;58876;51.994;4.472;2023-03-29T07:20:56;10.81;76.35
71175;DHT22;58876;51.994;4.472;2023-03-29T07:23:22;11.01;75.77
71175;DHT22;58876;51.994;4.472;2023-03-29T07:25:47;11.01;75.94
71175;DHT22;58876;51.994;4.472;2023-03-29T07:28:13;11.07;75.99
71175;DHT22;58876;51.994;4.472;2023-03-29T07:30:39;10.92;76.78
71175;DHT22;58876;51.994;4.472;2023-03-29T07:33:04;10.88;77.23
71175;DHT22;58876;51.994;4.472;2023-03-29T07:35:29;10.82;77.47
71175;DHT22;58876;51.994;4.472;2023-03-29T07:37:55;10.81;77.71
71175;DHT22;58876;51.994;4.472;2023-03-29T07:40:22;10.97;77.50
71175;DHT22;58876;51.994;4.472;2023-03-29T07:42:53;10.82;78.28
71175;DHT22;58876;51.994;4.472;2023-03-29T07:45:20;11.07;77.34
71175;DHT22;58876;51.994;4.472;2023-03-29T07:47:47;11.04;77.18
71175;DHT22;58876;51.994;4.472;2023-03-29T07:50:17;10.92;78.14
71175;DHT22;58876;51.994;4.472;2023-03-29T07:52:42;11.01;78.02
71175;DHT22;58876;51.994;4.472;2023-03-29T07:55:11;10.87;78.62
71175;DHT22;58876;51.994;4.472;2023-03-29T07:57:37;10.87;78.80
71175;DHT22;58876;51.994;4.472;2023-03-29T08:00:04;11.14;78.37
71175;DHT22;58876;51.994;4.472;2023-03-29T08:02:49;11.11;78.29
71175;DHT22;58876;51.994;4.472;2023-03-29T08:05:18;11.29;77.81
71175;DHT22;58876;51.994;4.472;2023-03-29T08:07:45;11.25;78.19
71175;DHT22;58876;51.994;4.472;2023-03-29T08:10:13;11.38;78.02
71175;DHT22;58876;51.994;4.472;2023-03-29T08:12:40;11.19;78.86
71175;DHT22;58876;51.994;4.472;2023-03-29T08:15:07;11.09;78.82
71175;DHT22;58876;51.994;4.472;2023-03-29T08:17:34;11.38;78.11
71175;DHT22;58876;51.994;4.472;2023-03-29T08:20:00;11.31;78.86
71175;DHT22;58876;51.994;4.472;2023-03-29T08:22:27;11.40;78.66
71175;DHT22;58876;51.994;4.472;2023-03-29T08:24:53;11.31;78.60
71175;DHT22;58876;51.994;4.472;2023-03-29T08:27:18;11.32;78.88
71175;DHT22;58876;51.994;4.472;2023-03-29T08:29:44;11.53;78.41
71175;DHT22;58876;51.994;4.472;2023-03-29T08:32:09;11.63;78.01
71175;DHT22;58876;51.994;4.472;2023-03-29T08:34:35;11.74;78.19
71175;DHT22;58876;51.994;4.472;2023-03-29T08:37:01;11.63;78.40
71175;DHT22;58876;51.994;4.472;2023-03-29T08:39:29;11.87;78.06
71175;DHT22;58876;51.994;4.472;2023-03-29T08:48:01;12.13;77.34
71175;DHT22;58876;51.994;4.472;2023-03-29T08:50:38;12.01;77.35
71175;DHT22;58876;51.994;4.472;2023-03-29T08:53:19;12.14;77.43
71175;DHT22;58876;51.994;4.472;2023-03-29T08:55:47;12.18;77.12
71175;DHT22;58876;51.994;4.472;2023-03-29T08:58:17;12.14;76.98
71175;DHT22;58876;51.994;4.472;2023-03-29T09:00:53;12.05;77.42
71175;DHT22;58876;51.994;4.472;2023-03-29T09:03:25;11.91;77.72
71175;DHT22;58876;51.994;4.472;2023-03-29T09:06:08;11.87;78.51
71175;DHT22;58876;51.994;4.472;2023-03-29T09:08:44;12.17;78.02
71175;DHT22;58876;51.994;4.472;2023-03-29T09:13:51;12.28;77.67
71175;DHT22;58876;51.994;4.472;2023-03-29T09:19:36;12.17;77.79
71175;DHT22;58876;51.994;4.472;2023-03-29T09:25:13;12.04;78.51
71175;DHT22;58876;51.994;4.472;2023-03-29T09:27:48;11.98;78.64
71175;DHT22;58876;51.994;4.472;2023-03-29T09:30:33;12.14;78.60
71175;DHT22;58876;51.994;4.472;2023-03-29T09:33:25;12.35;78.23
71175;DHT22;58876;51.994;4.472;2023-03-29T09:38:45;12.16;77.91
71175;DHT22;58876;51.994;4.472;2023-03-29T09:41:34;12.21;78.25
71175;DHT22;58876;51.994;4.472;2023-03-29T09:44:13;12.34;78.00
71175;DHT22;58876;51.994;4.472;2023-03-29T09:46:44;12.42;78.08
71175;DHT22;58876;51.994;4.472;2023-03-29T09:49:20;12.42;77.89
71175;DHT22;58876;51.994;4.472;2023-03-29T09:51:48;12.38;77.93
71175;DHT22;58876;51.994;4.472;2023-03-29T09:54:14;12.52;77.64
71175;DHT22;58876;51.994;4.472;2023-03-29T09:56:40;12.53;77.37
71175;DHT22;58876;51.994;4.472;2023-03-29T09:59:10;12.68;77.42
71175;DHT22;58876;51.994;4.472;2023-03-29T10:01:38;12.52;77.90
71175;DHT22;58876;51.994;4.472;2023-03-29T10:04:08;12.41;78.47
71175;DHT22;58876;51.994;4.472;2023-03-29T10:06:36;12.50;78.26
71175;DHT22;58876;51.994;4.472;2023-03-29T10:09:15;12.32;78.69
71175;DHT22;58876;51.994;4.472;2023-03-29T10:11:47;12.50;78.81
71175;DHT22;58876;51.994;4.472;2023-03-29T10:14:30;12.31;78.89
71175;DHT22;58876;51.994;4.472;2023-03-29T10:16:57;12.39;79.38
71175;DHT22;58876;51.994;4.472;2023-03-29T10:19:29;12.37;78.96
71175;DHT22;58876;51.994;4.472;2023-03-29T10:21:58;12.29;79.40
71175;DHT22;58876;51.994;4.472;2023-03-29T10:24:25;12.27;79.73
71175;DHT22;58876;51.994;4.472;2023-03-29T10:26:59;12.32;80.26
71175;DHT22;58876;51.994;4.472;2023-03-29T10:29:26;12.58;79.12
71175;DHT22;58876;51.994;4.472;2023-03-29T10:31:58;12.62;78.54
71175;DHT22;58876;51.994;4.472;2023-03-29T10:34:23;12.68;78.78
71175;DHT22;58876;51.994;4.472;2023-03-29T10:36:57;12.70;79.05
71175;DHT22;58876;51.994;4.472;2023-03-29T10:39:28;12.80;77.93
71175;DHT22;58876;51.994;4.472;2023-03-29T10:41:58;12.79;78.63
71175;DHT22;58876;51.994;4.472;2023-03-29T10:44:33;13.06;77.77
71175;DHT22;58876;51.994;4.472;2023-03-29T10:47:15;12.80;78.14
71175;DHT22;58876;51.994;4.472;2023-03-29T10:49:54;13.02;77.79
71175;DHT22;58876;51.994;4.472;2023-03-29T10:52:27;13.24;76.72
71175;DHT22;58876;51.994;4.472;2023-03-29T10:54:55;13.48;76.28
71175;DHT22;58876;51.994;4.472;2023-03-29T11:05:28;13.62;75.53
71175;DHT22;58876;51.994;4.472;2023-03-29T11:10:52;13.71;74.56
71175;DHT22;58876;51.994;4.472;2023-03-29T11:40:52;12.63;78.02
71175;DHT22;58876;51.994;4.472;2023-03-29T11:43:22;12.93;76.99
71175;DHT22;58876;51.994;4.472;2023-03-29T11:45:57;12.89;76.84
71175;DHT22;58876;51.994;4.472;2023-03-29T11:48:37;13.06;76.89
71175;DHT22;58876;51.994;4.472;2023-03-29T11:51:17;12.86;77.36
71175;DHT22;58876;51.994;4.472;2023-03-29T11:53:53;12.86;77.10
71175;DHT22;58876;51.994;4.472;2023-03-29T11:56:30;12.82;77.32
71175;DHT22;58876;51.994;4.472;2023-03-29T11:59:05;12.89;77.40
71175;DHT22;58876;51.994;4.472;2023-03-29T12:01:38;12.93;77.62
71175;DHT22;58876;51.994;4.472;2023-03-29T12:04:20;12.85;76.96
71175;DHT22;58876;51.994;4.472;2023-03-29T12:07:18;12.93;77.44
71175;DHT22;58876;51.994;4.472;2023-03-29T12:09:51;13.04;76.64
71175;DHT22;58876;51.994;4.472;2023-03-29T12:12:59;13.17;76.26
71175;DHT22;58876;51.994;4.472;2023-03-29T12:15:24;13.06;76.33
71175;DHT22;58876;51.994;4.472;2023-03-29T12:18:19;13.27;75.54
71175;DHT22;58876;51.994;4.472;2023-03-29T12:20:51;13.36;75.23
71175;DHT22;58876;51.994;4.472;2023-03-29T12:23:18;13.31;75.32
71175;DHT22;58876;51.994;4.472;2023-03-29T12:28:57;13.38;75.65
71175;DHT22;58876;51.994;4.472;2023-03-29T12:37:39;13.61;74.90
71175;DHT22;58876;51.994;4.472;2023-03-29T12:40:17;14.02;74.10
71175;DHT22;58876;51.994;4.472;2023-03-29T12:45:33;14.56;72.23
71175;DHT22;58876;51.994;4.472;2023-03-29T12:48:02;14.37;72.39
71175;DHT22;58876;51.994;4.472;2023-03-29T12:50:39;14.41;72.20
71175;DHT22;58876;51.994;4.472;2023-03-29T12:53:19;14.43;72.39
71175;DHT22;58876;51.994;4.472;2023-03-29T13:01:55;14.98;70.81
71175;DHT22;58876;51.994;4.472;2023-03-29T13:03:55;15.11;70.34
71175;DHT22;58876;51.994;4.472;2023-03-29T13:09:01;14.94;70.37
71175;DHT22;58876;51.994;4.472;2023-03-29T13:11:36;15.21;70.54
71175;DHT22;58876;51.994;4.472;2023-03-29T13:14:15;15.26;69.91
71175;DHT22;58876;51.994;4.472;2023-03-29T13:16:43;15.29;70.28
71175;DHT22;58876;51.994;4.472;2023-03-29T13:19:18;15.49;70.28
71175;DHT22;58876;51.994;4.472;2023-03-29T13:30:51;15.32;70.18
71175;DHT22;58876;51.994;4.472;2023-03-29T13:36:04;15.50;70.14
71175;DHT22;58876;51.994;4.472;2023-03-29T13:38:46;15.25;70.67
71175;DHT22;58876;51.994;4.472;2023-03-29T13:44:04;15.32;71.26
71175;DHT22;58876;51.994;4.472;2023-03-29T13:46:42;15.47;69.92
71175;DHT22;58876;51.994;4.472;2023-03-29T13:49:18;15.50;70.13
71175;DHT22;58876;51.994;4.472;2023-03-29T13:54:49;15.64;69.61
71175;DHT22;58876;51.994;4.472;2023-03-29T13:57:17;15.79;69.65
71175;DHT22;58876;51.994;4.472;2023-03-29T14:00:05;16.03;69.16
71175;DHT22;58876;51.994;4.472;2023-03-29T14:02:54;15.82;69.00
71175;DHT22;58876;51.994;4.472;2023-03-29T14:05:36;15.86;69.53
71175;DHT22;58876;51.994;4.472;2023-03-29T14:08:16;15.62;70.12
71175;DHT22;58876;51.994;4.472;2023-03-29T14:10:44;15.80;69.45
71175;DHT22;58876;51.994;4.472;2023-03-29T14:13:12;15.90;69.97
71175;DHT22;58876;51.994;4.472;2023-03-29T14:15:46;15.90;69.23
71175;DHT22;58876;51.994;4.472;2023-03-29T14:18:16;16.18;68.43
71175;DHT22;58876;51.994;4.472;2023-03-29T14:20:45;15.94;68.76
71175;DHT22;58876;51.994;4.472;2023-03-29T14:23:19;16.13;68.69
71175;DHT22;58876;51.994;4.472;2023-03-29T14:25:46;16.10;68.17
71175;DHT22;58876;51.994;4.472;2023-03-29T14:28:25;16.17;68.22
71175;DHT22;58876;51.994;4.472;2023-03-29T14:30:51;16.41;67.99
71175;DHT22;58876;51.994;4.472;2023-03-29T14:33:31;16.48;66.96
71175;DHT22;58876;51.994;4.472;2023-03-29T14:36:03;16.34;67.40
71175;DHT22;58876;51.994;4.472;2023-03-29T14:38:31;16.31;67.24
71175;DHT22;58876;51.994;4.472;2023-03-29T14:41:01;16.29;67.67
71175;DHT22;58876;51.994;4.472;2023-03-29T14:43:29;16.35;67.49
71175;DHT22;58876;51.994;4.472;2023-03-29T14:46:03;16.25;68.11
71175;DHT22;58876;51.994;4.472;2023-03-29T14:48:30;16.44;67.26
71175;DHT22;58876;51.994;4.472;2023-03-29T14:50:58;16.04;68.42
71175;DHT22;58876;51.994;4.472;2023-03-29T14:53:26;15.87;68.75
71175;DHT22;58876;51.994;4.472;2023-03-29T14:55:54;15.94;68.46
71175;DHT22;58876;51.994;4.472;2023-03-29T14:58:31;16.24;68.61
71175;DHT22;58876;51.994;4.472;2023-03-29T15:01:02;16.41;67.45
71175;DHT22;58876;51.994;4.472;2023-03-29T15:03:27;16.17;68.37
71175;DHT22;58876;51.994;4.472;2023-03-29T15:06:00;15.86;68.77
71175;DHT22;58876;51.994;4.472;2023-03-29T15:08:34;15.83;69.06
71175;DHT22;58876;51.994;4.472;2023-03-29T15:11:01;15.91;69.07
71175;DHT22;58876;51.994;4.472;2023-03-29T15:13:28;16.01;69.01
71175;DHT22;58876;51.994;4.472;2023-03-29T15:15:59;16.03;68.89
71175;DHT22;58876;51.994;4.472;2023-03-29T15:18:36;16.00;69.03
71175;DHT22;58876;51.994;4.472;2023-03-29T15:21:06;15.94;69.54
71175;DHT22;58876;51.994;4.472;2023-03-29T15:23:47;15.89;69.43
71175;DHT22;58876;51.994;4.472;2023-03-29T15:26:32;15.97;69.55
71175;DHT22;58876;51.994;4.472;2023-03-29T15:29:08;15.90;69.55
71175;DHT22;58876;51.994;4.472;2023-03-29T15:31:38;15.89;69.49
71175;DHT22;58876;51.994;4.472;2023-03-29T15:34:11;15.84;70.14
71175;DHT22;58876;51.994;4.472;2023-03-29T15:36:43;15.82;69.94
71175;DHT22;58876;51.994;4.472;2023-03-29T15:39:14;15.86;69.91
71175;DHT22;58876;51.994;4.472;2023-03-29T15:41:45;15.82;70.68
71175;DHT22;58876;51.994;4.472;2023-03-29T15:44:14;15.87;70.03
71175;DHT22;58876;51.994;4.472;2023-03-29T15:46:41;15.79;70.89
71175;DHT22;58876;51.994;4.472;2023-03-29T15:49:11;15.79;71.13
71175;DHT22;58876;51.994;4.472;2023-03-29T15:51:37;15.79;71.36
71175;DHT22;58876;51.994;4.472;2023-03-29T15:54:02;15.82;71.44
71175;DHT22;58876;51.994;4.472;2023-03-29T15:56:31;15.91;71.11
71175;DHT22;58876;51.994;4.472;2023-03-29T15:58:57;15.96;70.96
71175;DHT22;58876;51.994;4.472;2023-03-29T16:01:30;16.04;70.81
71175;DHT22;58876;51.994;4.472;2023-03-29T16:04:05;16.21;70.26
71175;DHT22;58876;51.994;4.472;2023-03-29T16:06:32;16.38;69.46
71175;DHT22;58876;51.994;4.472;2023-03-29T16:08:58;16.14;70.19
71175;DHT22;58876;51.994;4.472;2023-03-29T16:11:24;16.11;70.03
71175;DHT22;58876;51.994;4.472;2023-03-29T16:13:53;16.07;70.39
71175;DHT22;58876;51.994;4.472;2023-03-29T16:16:19;15.97;70.70
71175;DHT22;58876;51.994;4.472;2023-03-29T16:18:45;15.80;71.39
71175;DHT22;58876;51.994;4.472;2023-03-29T16:21:14;15.87;71.17
71175;DHT22;58876;51.994;4.472;2023-03-29T16:23:40;15.82;71.18
71175;DHT22;58876;51.994;4.472;2023-03-29T16:26:07;15.71;71.67
71175;DHT22;58876;51.994;4.472;2023-03-29T16:28:33;15.71;71.79
71175;DHT22;58876;51.994;4.472;2023-03-29T16:30:58;15.64;72.15
71175;DHT22;58876;51.994;4.472;2023-03-29T16:33:24;15.67;72.03
71175;DHT22;58876;51.994;4.472;2023-03-29T16:35:49;15.84;71.57
71175;DHT22;58876;51.994;4.472;2023-03-29T16:38:15;15.73;71.84
71175;DHT22;58876;51.994;4.472;2023-03-29T16:40:40;15.80;71.87
71175;DHT22;58876;51.994;4.472;2023-03-29T16:43:13;15.80;71.88
71175;DHT22;58876;51.994;4.472;2023-03-29T16:45:38;15.86;71.90
71175;DHT22;58876;51.994;4.472;2023-03-29T16:48:04;15.93;71.70
71175;DHT22;58876;51.994;4.472;2023-03-29T16:50:29;15.91;71.86
71175;DHT22;58876;51.994;4.472;2023-03-29T16:52:55;15.80;72.25
71175;DHT22;58876;51.994;4.472;2023-03-29T16:55:20;15.83;72.38
71175;DHT22;58876;51.994;4.472;2023-03-29T16:57:46;15.84;72.32
71175;DHT22;58876;51.994;4.472;2023-03-29T17:00:14;15.80;72.51
71175;DHT22;58876;51.994;4.472;2023-03-29T17:02:44;15.77;72.74
71175;DHT22;58876;51.994;4.472;2023-03-29T17:05:13;15.76;72.86
71175;DHT22;58876;51.994;4.472;2023-03-29T17:07:39;15.64;73.23
71175;DHT22;58876;51.994;4.472;2023-03-29T17:10:06;15.62;73.57
71175;DHT22;58876;51.994;4.472;2023-03-29T17:12:32;15.76;73.19
71175;DHT22;58876;51.994;4.472;2023-03-29T17:14:58;15.87;72.86
71175;DHT22;58876;51.994;4.472;2023-03-29T17:17:23;15.79;73.10
71175;DHT22;58876;51.994;4.472;2023-03-29T17:19:49;15.76;73.56
71175;DHT22;58876;51.994;4.472;2023-03-29T17:22:15;15.76;73.69
71175;DHT22;58876;51.994;4.472;2023-03-29T17:24:40;15.59;74.09
71175;DHT22;58876;51.994;4.472;2023-03-29T17:27:06;15.66;73.99
71175;DHT22;58876;51.994;4.472;2023-03-29T17:29:31;15.69;73.93
71175;DHT22;58876;51.994;4.472;2023-03-29T17:31:57;15.62;74.23
71175;DHT22;58876;51.994;4.472;2023-03-29T17:34:23;15.63;74.31
71175;DHT22;58876;51.994;4.472;2023-03-29T17:36:48;15.69;74.27
71175;DHT22;58876;51.994;4.472;2023-03-29T17:39:18;15.67;74.60
71175;DHT22;58876;51.994;4.472;2023-03-29T17:41:44;15.71;74.51
71175;DHT22;58876;51.994;4.472;2023-03-29T17:44:10;15.73;74.28